Time;durP1;ratioP1;P1;durP2;ratioP2;P2;SDS_P1;SDS_P2;PMS_P1;PMS_P2;Temp;Humidity;BMP_temperature;BMP_pressure;BME280_temperature;BME280_humidity;BME280_pressure;Samples;Min_cycle;Max_cycle;Signal;HPM_P1;HPM_P2
2021/12/22 00:01:38;;;;;;;26.33;13.57;;;;;;;;;;5032626;28;20083;-58
2021/12/22 00:04:06;;;;;;;27.52;14.60;;;;;;;;;;5032647;28;20115;-59
2021/12/22 00:06:34;;;;;;;24.23;12.55;;;;;;;;;;5032925;28;20064;-59
2021/12/22 00:09:04;;;;;;;24.60;13.30;;;;;;;;;;5033017;28;20046;-58
2021/12/22 00:11:31;;;;;;;22.23;13.07;;;;;;;;;;5033224;28;20064;-60
2021/12/22 00:13:57;;;;;;;23.30;14.32;;;;;;;;;;5031971;28;20049;-59
2021/12/22 00:16:25;;;;;;;21.85;12.98;;;;;;;;;;5032342;28;20050;-58
2021/12/22 00:18:52;;;;;;;26.95;14.63;;;;;;;;;;5031697;28;20056;-59
2021/12/22 00:21:21;;;;;;;24.42;13.27;;;;;;;;;;5031977;28;20231;-57
2021/12/22 00:23:48;;;;;;;25.52;13.82;;;;;;;;;;5032011;28;20053;-60
2021/12/22 00:26:15;;;;;;;26.88;14.73;;;;;;;;;;5031870;28;20057;-59
2021/12/22 00:28:43;;;;;;;26.95;14.30;;;;;;;;;;5031809;28;20049;-60
2021/12/22 00:31:12;;;;;;;25.73;13.75;;;;;;;;;;5032296;28;20056;-57
2021/12/22 00:33:46;;;;;;;26.50;14.38;;;;;;;;;;5032356;28;20057;-59
2021/12/22 00:36:15;;;;;;;24.85;13.55;;;;;;;;;;5032366;28;20056;-57
2021/12/22 00:38:43;;;;;;;21.05;13.52;;;;;;;;;;5031898;28;20053;-59
2021/12/22 00:41:11;;;;;;;27.90;14.73;;;;;;;;;;5032209;28;20054;-58
2021/12/22 00:43:38;;;;;;;28.50;14.50;;;;;;;;;;5031867;28;20375;-55
2021/12/22 00:46:05;;;;;;;26.80;13.60;;;;;;;;;;5031736;28;20056;-59
2021/12/22 00:48:32;;;;;;;26.05;14.30;;;;;;;;;;5031941;28;20053;-62
2021/12/22 00:51:00;;;;;;;27.55;14.65;;;;;;;;;;5031730;28;20060;-57
2021/12/22 00:53:27;;;;;;;24.95;14.32;;;;;;;;;;5031644;28;20060;-58
2021/12/22 00:55:55;;;;;;;23.25;14.18;;;;;;;;;;5031818;28;20522;-58
2021/12/22 00:58:23;;;;;;;27.15;14.30;;;;;;;;;;5031401;28;20133;-60
2021/12/22 01:00:50;;;;;;;28.30;14.73;;;;;;;;;;5031677;28;20050;-57
2021/12/22 01:03:19;;;;;;;25.05;14.50;;;;;;;;;;5031647;28;20053;-58
2021/12/22 01:05:46;;;;;;;26.23;13.85;;;;;;;;;;5031655;28;20052;-57
2021/12/22 01:08:13;;;;;;;26.38;14.10;;;;;;;;;;5031410;28;20053;-60
2021/12/22 01:10:40;;;;;;;25.70;13.57;;;;;;;;;;5031550;28;20056;-58
2021/12/22 01:13:09;;;;;;;23.98;13.45;;;;;;;;;;5031548;28;20069;-60
2021/12/22 01:15:37;;;;;;;28.38;14.82;;;;;;;;;;5031415;28;20109;-58
2021/12/22 01:18:10;;;;;;;25.00;14.00;;;;;;;;;;5031334;28;20053;-57
2021/12/22 01:20:51;;;;;;;24.63;13.27;;;;;;;;;;5031862;28;20050;-57
2021/12/22 01:23:20;;;;;;;25.90;14.50;;;;;;;;;;5031599;28;20056;-60
2021/12/22 01:25:48;;;;;;;26.45;13.75;;;;;;;;;;5031332;28;20064;-57
2021/12/22 01:28:17;;;;;;;24.73;14.52;;;;;;;;;;5031147;28;20107;-58
2021/12/22 01:30:48;;;;;;;26.92;14.52;;;;;;;;;;5031331;28;20153;-59
2021/12/22 01:33:16;;;;;;;27.10;15.18;;;;;;;;;;5031587;28;20140;-61
2021/12/22 01:35:44;;;;;;;26.92;13.63;;;;;;;;;;5031402;28;20060;-60
2021/12/22 01:38:11;;;;;;;22.92;12.75;;;;;;;;;;5043518;22;20495;-68
2021/12/22 01:40:42;;;;;;;23.10;14.68;;;;;;;;;;5030123;28;20052;-68
2021/12/22 01:43:09;;;;;;;28.45;14.80;;;;;;;;;;5051950;28;20049;-68
2021/12/22 01:45:56;;;;;;;25.88;14.30;;;;;;;;;;5054294;28;20063;-67
2021/12/22 01:51:32;;;;;;;28.52;14.82;;;;;;;;;;5054650;28;20048;-67
2021/12/22 01:54:01;;;;;;;25.70;14.88;;;;;;;;;;5054454;28;20454;-67
2021/12/22 01:56:31;;;;;;;26.33;14.90;;;;;;;;;;5054407;28;20500;-68
2021/12/22 01:59:01;;;;;;;27.80;14.65;;;;;;;;;;5054117;28;20053;-68
2021/12/22 02:01:32;;;;;;;27.08;14.93;;;;;;;;;;5054060;28;20049;-68
2021/12/22 02:04:00;;;;;;;27.58;13.95;;;;;;;;;;5054389;28;20490;-67
2021/12/22 02:06:28;;;;;;;29.80;15.27;;;;;;;;;;5054181;28;20422;-67
2021/12/22 02:08:55;;;;;;;28.38;16.25;;;;;;;;;;5053915;28;20421;-67
2021/12/22 02:11:23;;;;;;;25.20;13.90;;;;;;;;;;5053948;28;20060;-68
2021/12/22 02:13:56;;;;;;;26.23;14.50;;;;;;;;;;5054059;28;20537;-68
2021/12/22 02:16:28;;;;;;;29.77;15.30;;;;;;;;;;5054252;28;20057;-68
2021/12/22 02:18:58;;;;;;;28.27;14.82;;;;;;;;;;5053634;28;20088;-68
2021/12/22 02:21:31;;;;;;;28.90;16.00;;;;;;;;;;5053922;28;20049;-67
2021/12/22 02:23:59;;;;;;;29.27;14.90;;;;;;;;;;5053935;28;20114;-68
2021/12/22 02:26:32;;;;;;;27.40;15.00;;;;;;;;;;5053706;28;20056;-68
2021/12/22 02:29:03;;;;;;;27.30;14.52;;;;;;;;;;5053752;28;20135;-68
2021/12/22 02:31:36;;;;;;;27.67;14.70;;;;;;;;;;5053862;28;20299;-67
2021/12/22 02:34:03;;;;;;;30.48;16.02;;;;;;;;;;5053859;28;20520;-68
2021/12/22 02:36:38;;;;;;;29.90;15.55;;;;;;;;;;5053998;28;20053;-68
2021/12/22 02:39:07;;;;;;;32.65;16.17;;;;;;;;;;5053522;28;20073;-67
2021/12/22 02:41:36;;;;;;;28.70;14.80;;;;;;;;;;5053503;28;20652;-68
2021/12/22 02:44:07;;;;;;;31.73;16.15;;;;;;;;;;5053721;28;20053;-67
2021/12/22 02:46:37;;;;;;;27.02;14.60;;;;;;;;;;5053671;28;20049;-68
2021/12/22 02:49:06;;;;;;;28.65;15.73;;;;;;;;;;5053080;28;20056;-68
2021/12/22 02:51:35;;;;;;;28.77;14.57;;;;;;;;;;5053464;28;20057;-68
2021/12/22 02:54:08;;;;;;;30.38;15.95;;;;;;;;;;5052846;28;20045;-68
2021/12/22 02:56:49;;;;;;;31.77;16.00;;;;;;;;;;5053081;28;20494;-68
2021/12/22 02:59:35;;;;;;;28.88;14.65;;;;;;;;;;5053346;28;20070;-67
2021/12/22 03:02:13;;;;;;;26.42;14.63;;;;;;;;;;5053154;28;20122;-68
2021/12/22 03:04:52;;;;;;;25.88;13.77;;;;;;;;;;5053337;28;20509;-67
2021/12/22 03:07:24;;;;;;;31.63;15.57;;;;;;;;;;5053285;28;20088;-68
2021/12/22 03:09:59;;;;;;;31.23;14.95;;;;;;;;;;5053058;28;20524;-67
2021/12/22 03:12:28;;;;;;;29.00;14.48;;;;;;;;;;5052958;28;20056;-68
2021/12/22 03:14:55;;;;;;;31.60;16.05;;;;;;;;;;5053170;28;20059;-68
2021/12/22 03:17:22;;;;;;;35.05;16.05;;;;;;;;;;5052724;28;20449;-68
2021/12/22 03:19:49;;;;;;;33.20;16.48;;;;;;;;;;5052645;28;20052;-68
2021/12/22 03:22:19;;;;;;;29.58;14.23;;;;;;;;;;5052744;28;20056;-67
2021/12/22 03:24:50;;;;;;;28.40;15.27;;;;;;;;;;5053024;28;20064;-67
2021/12/22 03:27:16;;;;;;;;;;;;;;;;;;5053655;28;20091;-67
2021/12/22 03:29:43;;;;;;;28.60;13.82;;;;;;;;;;5052483;28;20395;-67
2021/12/22 03:32:11;;;;;;;27.23;14.65;;;;;;;;;;5052644;28;20399;-68
2021/12/22 03:34:39;;;;;;;26.52;14.48;;;;;;;;;;5052594;28;20053;-68
2021/12/22 03:37:07;;;;;;;32.42;16.58;;;;;;;;;;5052378;28;20077;-68
2021/12/22 03:39:34;;;;;;;28.77;15.90;;;;;;;;;;5052291;28;20049;-68
2021/12/22 03:42:02;;;;;;;34.83;17.10;;;;;;;;;;5052242;28;20490;-68
2021/12/22 03:44:29;;;;;;;30.13;15.50;;;;;;;;;;5052384;28;20055;-68
2021/12/22 03:46:59;;;;;;;31.08;16.88;;;;;;;;;;5052498;28;20386;-67
2021/12/22 03:49:27;;;;;;;33.03;16.47;;;;;;;;;;5052385;28;20075;-67
2021/12/22 03:51:54;;;;;;;32.20;15.63;;;;;;;;;;5052096;28;20520;-68
2021/12/22 03:54:21;;;;;;;34.92;17.00;;;;;;;;;;5052242;28;20049;-67
2021/12/22 03:56:49;;;;;;;29.15;15.00;;;;;;;;;;5052166;28;20410;-68
2021/12/22 03:59:19;;;;;;;31.17;15.73;;;;;;;;;;5051875;28;20059;-67
2021/12/22 04:01:46;;;;;;;30.25;15.30;;;;;;;;;;5052119;28;20472;-68
2021/12/22 04:04:17;;;;;;;33.28;15.43;;;;;;;;;;5052368;28;20468;-69
2021/12/22 04:06:45;;;;;;;35.42;17.20;;;;;;;;;;5051510;28;20049;-69
2021/12/22 04:09:12;;;;;;;30.38;14.70;;;;;;;;;;5051568;28;20049;-68
2021/12/22 04:11:40;;;;;;;30.70;15.45;;;;;;;;;;5051843;28;20049;-68
2021/12/22 04:14:07;;;;;;;31.17;15.32;;;;;;;;;;5052121;28;20045;-68
2021/12/22 04:16:36;;;;;;;31.33;15.90;;;;;;;;;;5052148;28;20045;-68
2021/12/22 04:19:03;;;;;;;32.88;16.25;;;;;;;;;;5051650;28;20059;-68
2021/12/22 04:21:30;;;;;;;33.13;16.20;;;;;;;;;;5051659;28;20417;-68
2021/12/22 04:23:57;;;;;;;32.75;16.05;;;;;;;;;;5051663;28;20110;-68
2021/12/22 04:26:26;;;;;;;31.40;15.35;;;;;;;;;;5051944;28;20579;-68
2021/12/22 04:28:53;;;;;;;29.35;16.50;;;;;;;;;;5051351;28;20053;-68
2021/12/22 04:31:20;;;;;;;31.50;15.90;;;;;;;;;;5051750;28;20053;-69
2021/12/22 04:33:49;;;;;;;39.03;17.65;;;;;;;;;;5051818;28;20513;-68
2021/12/22 04:36:16;;;;;;;31.45;16.83;;;;;;;;;;5051874;28;20064;-68
2021/12/22 04:38:43;;;;;;;32.50;15.57;;;;;;;;;;5051405;28;20549;-69
2021/12/22 04:41:10;;;;;;;40.35;18.00;;;;;;;;;;5051985;28;20053;-69
2021/12/22 04:43:37;;;;;;;34.20;17.40;;;;;;;;;;5051534;28;20291;-68
2021/12/22 04:46:03;;;;;;;35.90;18.25;;;;;;;;;;5051643;28;20056;-68
2021/12/22 04:48:31;;;;;;;33.75;16.42;;;;;;;;;;5051388;28;20045;-68
2021/12/22 04:50:59;;;;;;;32.70;16.50;;;;;;;;;;5051683;28;20041;-68
2021/12/22 04:53:29;;;;;;;33.63;16.08;;;;;;;;;;5051359;28;20049;-68
2021/12/22 04:55:56;;;;;;;38.67;17.70;;;;;;;;;;5051721;28;20080;-68
2021/12/22 04:58:23;;;;;;;32.72;15.82;;;;;;;;;;5051066;28;20049;-67
2021/12/22 05:00:50;;;;;;;36.13;16.77;;;;;;;;;;5051264;28;20056;-68
2021/12/22 05:03:17;;;;;;;40.50;17.70;;;;;;;;;;5051447;28;20053;-67
2021/12/22 05:05:44;;;;;;;39.65;16.75;;;;;;;;;;5051595;28;20056;-67
2021/12/22 05:08:12;;;;;;;38.53;17.35;;;;;;;;;;5051087;28;20045;-68
2021/12/22 05:10:39;;;;;;;38.30;17.77;;;;;;;;;;5051503;28;20044;-68
2021/12/22 05:13:06;;;;;;;37.25;17.65;;;;;;;;;;5051165;28;20486;-67
2021/12/22 05:15:38;;;;;;;39.90;18.90;;;;;;;;;;5051445;28;20083;-67
2021/12/22 05:18:21;;;;;;;34.13;17.65;;;;;;;;;;5052029;28;20114;-67
2021/12/22 05:20:48;;;;;;;41.83;18.60;;;;;;;;;;5054912;28;20064;-67
2021/12/22 05:23:17;;;;;;;39.40;17.20;;;;;;;;;;5055086;28;20048;-67
2021/12/22 05:25:45;;;;;;;38.92;18.60;;;;;;;;;;5054920;28;20267;-68
2021/12/22 05:28:12;;;;;;;38.30;17.88;;;;;;;;;;5054928;28;20048;-68
2021/12/22 05:30:39;;;;;;;36.80;18.35;;;;;;;;;;5055242;28;20497;-68
2021/12/22 05:33:05;;;;;;;46.33;20.02;;;;;;;;;;5054722;28;20048;-68
2021/12/22 05:35:32;;;;;;;39.83;18.38;;;;;;;;;;5054882;28;20409;-68
2021/12/22 05:37:59;;;;;;;43.00;19.25;;;;;;;;;;5054539;28;20049;-68
2021/12/22 05:40:28;;;;;;;47.90;19.02;;;;;;;;;;5054907;28;20056;-68
2021/12/22 05:42:57;;;;;;;44.42;19.20;;;;;;;;;;5054526;28;20079;-68
2021/12/22 05:45:24;;;;;;;41.88;18.90;;;;;;;;;;5054789;28;20056;-68
2021/12/22 05:47:52;;;;;;;44.75;20.40;;;;;;;;;;5054644;28;20048;-69
2021/12/22 05:50:20;;;;;;;47.67;20.70;;;;;;;;;;5054959;28;20417;-69
2021/12/22 05:52:47;;;;;;;49.55;20.42;;;;;;;;;;5054701;28;20061;-68
2021/12/22 05:55:14;;;;;;;51.67;21.25;;;;;;;;;;5054695;28;20056;-68
2021/12/22 05:57:43;;;;;;;50.35;19.90;;;;;;;;;;5054210;28;20490;-68
2021/12/22 06:00:11;;;;;;;47.58;19.33;;;;;;;;;;5054620;28;20513;-68
2021/12/22 06:02:38;;;;;;;45.88;18.92;;;;;;;;;;5054373;28;20071;-68
2021/12/22 06:05:06;;;;;;;45.92;19.25;;;;;;;;;;5054118;28;20379;-68
2021/12/22 06:07:32;;;;;;;48.88;20.05;;;;;;;;;;5054109;28;20049;-68
2021/12/22 06:09:59;;;;;;;44.75;19.75;;;;;;;;;;5054174;28;20056;-68
2021/12/22 06:12:26;;;;;;;48.00;20.52;;;;;;;;;;5053842;28;20057;-68
2021/12/22 06:14:55;;;;;;;47.70;21.35;;;;;;;;;;5054049;28;20406;-68
2021/12/22 06:17:22;;;;;;;48.42;21.77;;;;;;;;;;5054183;28;20048;-67
2021/12/22 06:19:48;;;;;;;46.83;19.08;;;;;;;;;;5053835;28;20053;-68
2021/12/22 06:22:15;;;;;;;46.42;18.85;;;;;;;;;;5054261;28;20057;-68
2021/12/22 06:24:42;;;;;;;49.88;21.73;;;;;;;;;;5054081;28;20060;-70
2021/12/22 06:27:09;;;;;;;47.85;19.13;;;;;;;;;;5054169;28;20049;-69
2021/12/22 06:29:36;;;;;;;52.15;19.98;;;;;;;;;;5053364;28;20041;-69
2021/12/22 06:32:05;;;;;;;49.53;19.88;;;;;;;;;;5053728;28;20083;-69
2021/12/22 06:34:32;;;;;;;54.97;21.27;;;;;;;;;;5053562;28;20055;-69
2021/12/22 06:36:59;;;;;;;50.10;19.48;;;;;;;;;;5054191;28;20084;-69
2021/12/22 06:39:26;;;;;;;50.95;19.35;;;;;;;;;;5053444;28;20406;-69
2021/12/22 06:41:53;;;;;;;52.33;20.83;;;;;;;;;;5053788;28;20049;-69
2021/12/22 06:44:23;;;;;;;55.97;21.88;;;;;;;;;;5053764;28;20052;-68
2021/12/22 06:46:50;;;;;;;51.28;19.70;;;;;;;;;;5053735;28;20385;-69
2021/12/22 06:49:19;;;;;;;52.25;19.63;;;;;;;;;;5053496;28;20091;-69
2021/12/22 06:51:46;;;;;;;52.55;21.25;;;;;;;;;;5053591;28;20064;-69
2021/12/22 06:54:13;;;;;;;53.03;21.65;;;;;;;;;;5053834;28;20049;-69
2021/12/22 06:56:40;;;;;;;52.45;20.05;;;;;;;;;;5053966;28;20406;-69
2021/12/22 06:59:07;;;;;;;54.25;20.75;;;;;;;;;;5053039;28;20049;-69
2021/12/22 07:01:35;;;;;;;56.85;21.52;;;;;;;;;;5053479;28;20053;-69
2021/12/22 07:04:03;;;;;;;60.42;22.95;;;;;;;;;;5053861;28;20061;-68
2021/12/22 07:06:32;;;;;;;55.30;21.67;;;;;;;;;;5053665;28;20096;-68
2021/12/22 07:08:59;;;;;;;58.70;21.85;;;;;;;;;;5053651;28;20052;-67
2021/12/22 07:11:26;;;;;;;54.33;20.10;;;;;;;;;;5053879;28;20368;-67
2021/12/22 07:13:53;;;;;;;60.13;20.77;;;;;;;;;;5053125;28;20053;-67
2021/12/22 07:16:20;;;;;;;54.60;21.73;;;;;;;;;;5053247;28;20057;-67
2021/12/22 07:18:47;;;;;;;51.17;20.98;;;;;;;;;;5053156;28;20139;-67
2021/12/22 07:21:14;;;;;;;50.75;20.58;;;;;;;;;;5052943;28;20340;-68
2021/12/22 07:23:42;;;;;;;49.40;19.77;;;;;;;;;;5053052;28;20049;-68
2021/12/22 07:26:13;;;;;;;57.25;21.98;;;;;;;;;;5052941;28;20045;-68
2021/12/22 07:28:41;;;;;;;57.22;22.17;;;;;;;;;;5053010;28;20053;-67
2021/12/22 07:31:08;;;;;;;56.78;21.42;;;;;;;;;;5052781;28;20048;-67
2021/12/22 07:33:35;;;;;;;49.70;21.35;;;;;;;;;;5052454;28;20049;-68
2021/12/22 07:36:06;;;;;;;58.33;21.75;;;;;;;;;;5052850;28;20079;-68
2021/12/22 07:38:36;;;;;;;61.95;23.52;;;;;;;;;;5052744;28;20049;-68
2021/12/22 07:41:05;;;;;;;49.70;21.13;;;;;;;;;;5052117;28;20064;-68
2021/12/22 07:43:33;;;;;;;54.78;20.98;;;;;;;;;;5052466;28;20056;-69
2021/12/22 07:46:00;;;;;;;55.22;20.73;;;;;;;;;;5052851;28;20049;-68
2021/12/22 07:48:28;;;;;;;61.50;22.55;;;;;;;;;;5052460;28;20111;-68
2021/12/22 07:50:55;;;;;;;53.00;21.48;;;;;;;;;;5052455;28;20410;-67
2021/12/22 07:55:53;;;;;;;59.97;20.30;;;;;;;;;;5011861;28;20112;-61
2021/12/22 07:58:24;;;;;;;63.28;21.73;;;;;;;;;;5013843;28;20100;-61
2021/12/22 08:00:52;;;;;;;69.45;24.73;;;;;;;;;;5013870;28;20054;-61
2021/12/22 08:03:19;;;;;;;85.55;32.30;;;;;;;;;;5013669;28;20506;-61
2021/12/22 08:05:47;;;;;;;74.18;27.00;;;;;;;;;;5013492;28;20585;-62
2021/12/22 08:08:14;;;;;;;101.40;37.20;;;;;;;;;;5012649;28;20137;-61
2021/12/22 08:10:42;;;;;;;92.40;32.70;;;;;;;;;;5010479;28;20048;-60
2021/12/22 08:13:09;;;;;;;73.10;25.15;;;;;;;;;;5012046;28;20474;-60
2021/12/22 08:15:38;;;;;;;56.97;21.73;;;;;;;;;;5012371;28;20057;-64
2021/12/22 08:18:05;;;;;;;75.50;27.73;;;;;;;;;;5011566;28;20129;-61
2021/12/22 08:20:32;;;;;;;66.45;23.02;;;;;;;;;;5011348;28;20049;-60
2021/12/22 08:22:59;;;;;;;59.75;22.63;;;;;;;;;;5011443;28;20065;-62
2021/12/22 08:25:26;;;;;;;64.47;22.98;;;;;;;;;;5011582;28;20474;-60
2021/12/22 08:27:53;;;;;;;69.40;25.33;;;;;;;;;;5012111;28;20050;-60
2021/12/22 08:30:20;;;;;;;65.07;21.58;;;;;;;;;;5011491;28;20045;-60
2021/12/22 08:32:48;;;;;;;64.47;22.35;;;;;;;;;;5011475;28;20590;-60
2021/12/22 08:35:17;;;;;;;64.05;23.08;;;;;;;;;;5012817;28;20054;-60
2021/12/22 08:40:29;;;;;;;61.25;22.20;;;;;;;;;;5012747;28;20057;-62
2021/12/22 08:42:56;;;;;;;65.93;21.95;;;;;;;;;;5011719;28;20058;-59
2021/12/22 08:45:23;;;;;;;57.42;21.52;;;;;;;;;;5010509;28;20045;-60
2021/12/22 08:47:51;;;;;;;59.35;22.35;;;;;;;;;;5009779;28;20514;-59
2021/12/22 08:50:20;;;;;;;61.53;23.95;;;;;;;;;;5010000;28;20046;-60
2021/12/22 08:52:47;;;;;;;68.32;23.73;;;;;;;;;;5009933;28;20061;-60
2021/12/22 08:55:15;;;;;;;61.35;21.85;;;;;;;;;;5014077;28;20191;-60
2021/12/22 08:57:42;;;;;;;68.05;22.35;;;;;;;;;;5013513;28;20053;-60
2021/12/22 09:00:12;;;;;;;66.15;23.40;;;;;;;;;;5013936;28;20411;-60
2021/12/22 09:02:40;;;;;;;60.38;22.40;;;;;;;;;;5013939;28;20046;-60
2021/12/22 09:05:09;;;;;;;64.93;24.33;;;;;;;;;;5014228;28;20058;-60
2021/12/22 09:07:36;;;;;;;60.40;22.23;;;;;;;;;;5013879;28;20046;-60
2021/12/22 09:10:04;;;;;;;67.13;23.83;;;;;;;;;;5014460;28;20049;-61
2021/12/22 09:12:31;;;;;;;61.40;22.80;;;;;;;;;;5013550;28;20065;-60
2021/12/22 09:14:58;;;;;;;64.88;21.83;;;;;;;;;;5014003;28;20072;-60
2021/12/22 09:17:25;;;;;;;63.85;22.33;;;;;;;;;;5013684;28;20054;-60
2021/12/22 09:19:53;;;;;;;67.45;24.13;;;;;;;;;;5014024;28;20108;-60
2021/12/22 09:22:22;;;;;;;61.08;21.25;;;;;;;;;;5013680;28;20049;-61
2021/12/22 09:24:49;;;;;;;60.85;21.67;;;;;;;;;;5013420;28;20056;-61
2021/12/22 09:27:17;;;;;;;60.15;22.48;;;;;;;;;;5013697;28;20064;-60
2021/12/22 09:29:44;;;;;;;64.22;21.75;;;;;;;;;;5013365;28;20052;-65
2021/12/22 09:32:14;;;;;;;62.15;23.35;;;;;;;;;;5013496;28;20056;-61
2021/12/22 09:34:42;;;;;;;60.67;21.85;;;;;;;;;;5013910;28;20593;-61
2021/12/22 09:37:09;;;;;;;61.95;21.50;;;;;;;;;;5013443;28;20049;-61
2021/12/22 09:39:38;;;;;;;65.00;23.10;;;;;;;;;;5012904;28;20042;-60
2021/12/22 09:42:05;;;;;;;73.47;23.42;;;;;;;;;;5013344;28;20533;-61
2021/12/22 09:44:36;;;;;;;59.53;21.65;;;;;;;;;;5013928;28;20046;-61
2021/12/22 09:47:05;;;;;;;60.90;22.75;;;;;;;;;;5013929;28;20053;-60
2021/12/22 09:49:58;;;;;;;63.55;22.33;;;;;;;;;;5013509;28;20414;-59
2021/12/22 09:52:27;;;;;;;63.60;21.52;;;;;;;;;;5013563;28;20450;-61
2021/12/22 09:54:59;;;;;;;58.10;20.55;;;;;;;;;;5013335;28;20050;-62
2021/12/22 09:57:27;;;;;;;59.03;21.83;;;;;;;;;;5013319;28;20061;-61
2021/12/22 09:59:55;;;;;;;59.75;21.30;;;;;;;;;;5013404;28;20049;-60
2021/12/22 10:02:28;;;;;;;57.83;21.30;;;;;;;;;;5013320;28;20058;-61
2021/12/22 10:04:56;;;;;;;60.42;20.50;;;;;;;;;;5013112;28;20061;-62
2021/12/22 10:07:26;;;;;;;61.88;21.80;;;;;;;;;;5013255;28;20482;-61
2021/12/22 10:10:02;;;;;;;57.00;20.48;;;;;;;;;;5013374;28;20068;-59
2021/12/22 10:12:29;;;;;;;54.45;19.92;;;;;;;;;;5013283;28;20061;-58
2021/12/22 10:14:58;;;;;;;57.85;21.50;;;;;;;;;;5013181;28;20140;-62
2021/12/22 10:17:31;;;;;;;54.58;21.05;;;;;;;;;;5012631;28;20400;-61
2021/12/22 10:19:58;;;;;;;58.22;21.25;;;;;;;;;;5012684;28;20054;-65
2021/12/22 10:22:37;;;;;;;62.58;22.38;;;;;;;;;;5012553;28;20057;-60
2021/12/22 10:25:11;;;;;;;61.78;21.60;;;;;;;;;;5012644;28;20046;-61
2021/12/22 10:27:41;;;;;;;60.65;21.85;;;;;;;;;;5012535;28;20050;-61
2021/12/22 10:30:26;;;;;;;55.78;20.30;;;;;;;;;;5011918;28;20089;-60
2021/12/22 10:33:06;;;;;;;63.42;21.95;;;;;;;;;;5012846;28;20057;-60
2021/12/22 10:35:34;;;;;;;60.35;19.95;;;;;;;;;;5012805;28;20054;-59
2021/12/22 10:38:03;;;;;;;54.33;21.45;;;;;;;;;;5012121;28;20203;-58
2021/12/22 10:40:33;;;;;;;56.50;21.02;;;;;;;;;;5012828;28;20052;-60
2021/12/22 10:43:02;;;;;;;53.80;20.42;;;;;;;;;;5012546;28;20446;-59
2021/12/22 10:45:31;;;;;;;60.88;22.38;;;;;;;;;;5012655;28;20495;-59
2021/12/22 10:50:45;;;;;;;51.40;20.65;;;;;;;;;;5012826;28;20052;-61
2021/12/22 10:53:14;;;;;;;60.60;20.67;;;;;;;;;;5012056;28;20045;-60
2021/12/22 10:55:44;;;;;;;58.15;20.77;;;;;;;;;;5012236;28;20141;-59
2021/12/22 10:58:16;;;;;;;53.00;22.23;;;;;;;;;;5011215;28;20418;-61
2021/12/22 11:00:43;;;;;;;62.83;21.90;;;;;;;;;;5011275;28;20054;-61
2021/12/22 11:03:14;;;;;;;58.30;21.10;;;;;;;;;;5011055;28;20402;-61
2021/12/22 11:05:45;;;;;;;65.18;24.27;;;;;;;;;;5011615;28;20057;-60
2021/12/22 11:08:19;;;;;;;56.35;22.05;;;;;;;;;;5011731;28;20050;-60
2021/12/22 11:10:49;;;;;;;60.35;23.10;;;;;;;;;;5011886;28;20046;-58
2021/12/22 11:13:20;;;;;;;55.15;21.15;;;;;;;;;;5011776;28;20514;-59
2021/12/22 11:15:48;;;;;;;56.60;21.00;;;;;;;;;;5011213;28;20396;-58
2021/12/22 11:18:26;;;;;;;51.78;19.50;;;;;;;;;;5012365;28;20104;-59
2021/12/22 11:21:08;;;;;;;55.72;21.60;;;;;;;;;;5012216;28;20089;-59
2021/12/22 11:23:36;;;;;;;62.00;20.65;;;;;;;;;;5011949;28;20073;-60
2021/12/22 11:26:05;;;;;;;55.15;20.55;;;;;;;;;;5011923;28;20494;-57
2021/12/22 11:28:34;;;;;;;56.50;20.42;;;;;;;;;;5011262;28;20054;-58
2021/12/22 11:31:03;;;;;;;55.05;20.92;;;;;;;;;;5011488;28;20111;-58
2021/12/22 11:33:31;;;;;;;61.00;22.77;;;;;;;;;;5011808;28;20074;-60
2021/12/22 11:35:58;;;;;;;50.33;21.13;;;;;;;;;;5011361;28;20480;-57
2021/12/22 11:38:26;;;;;;;59.80;20.63;;;;;;;;;;5011790;28;20050;-58
2021/12/22 11:40:55;;;;;;;58.35;22.70;;;;;;;;;;5010524;28;20131;-58
2021/12/22 11:43:24;;;;;;;61.17;21.58;;;;;;;;;;5011459;28;20100;-60
2021/12/22 11:45:51;;;;;;;60.42;21.50;;;;;;;;;;5010534;28;20057;-58
2021/12/22 11:48:19;;;;;;;57.67;21.33;;;;;;;;;;5010528;28;20046;-58
2021/12/22 11:50:48;;;;;;;55.92;20.23;;;;;;;;;;5011030;28;20140;-59
2021/12/22 11:53:16;;;;;;;51.75;20.17;;;;;;;;;;5011045;28;20053;-59
2021/12/22 11:55:47;;;;;;;51.42;19.27;;;;;;;;;;5011055;28;20054;-63
2021/12/22 11:58:17;;;;;;;61.67;21.42;;;;;;;;;;5011022;28;20471;-59
2021/12/22 12:00:47;;;;;;;57.42;18.48;;;;;;;;;;5011219;28;20072;-60
2021/12/22 12:03:26;;;;;;;49.78;19.30;;;;;;;;;;5011171;28;20050;-59
2021/12/22 12:06:06;;;;;;;58.35;23.10;;;;;;;;;;5011081;28;20475;-59
2021/12/22 12:08:35;;;;;;;56.30;19.65;;;;;;;;;;5011111;28;20414;-60
2021/12/22 12:11:04;;;;;;;58.88;20.85;;;;;;;;;;5010986;28;20049;-59
2021/12/22 12:13:45;;;;;;;51.67;20.65;;;;;;;;;;5010960;28;20196;-59
2021/12/22 12:22:20;;;;;;;56.10;20.50;;;;;;;;;;5010731;28;20061;-59
2021/12/22 12:25:09;;;;;;;53.30;20.52;;;;;;;;;;5010317;28;20073;-59
2021/12/22 12:27:55;;;;;;;52.10;20.08;;;;;;;;;;5010766;28;20133;-59
2021/12/22 12:30:27;;;;;;;60.60;20.15;;;;;;;;;;5010691;28;20052;-59
2021/12/22 12:33:29;;;;;;;56.42;20.13;;;;;;;;;;5010472;28;20057;-59
2021/12/22 12:36:04;;;;;;;59.50;20.42;;;;;;;;;;5010729;28;20064;-59
2021/12/22 12:38:46;;;;;;;58.38;21.92;;;;;;;;;;5010694;28;20104;-58
2021/12/22 12:41:35;;;;;;;56.28;20.83;;;;;;;;;;5011114;28;20534;-61
2021/12/22 12:44:26;;;;;;;56.08;21.08;;;;;;;;;;5009851;28;20054;-58
2021/12/22 12:46:53;;;;;;;50.25;19.35;;;;;;;;;;5010034;28;20388;-60
2021/12/22 12:49:35;;;;;;;53.58;20.67;;;;;;;;;;5010544;28;20137;-58
2021/12/22 12:52:10;;;;;;;52.58;21.40;;;;;;;;;;5010268;28;20050;-60
2021/12/22 12:54:40;;;;;;;100.20;37.72;;;;;;;;;;5010238;28;20058;-58
2021/12/22 12:57:23;;;;;;;65.78;23.92;;;;;;;;;;5010642;28;20046;-61
2021/12/22 12:59:54;;;;;;;59.85;21.73;;;;;;;;;;5010352;28;20407;-59
2021/12/22 13:02:24;;;;;;;57.90;21.83;;;;;;;;;;5010977;28;20553;-59
2021/12/22 13:04:57;;;;;;;60.28;20.50;;;;;;;;;;5010633;28;20056;-60
2021/12/22 13:07:26;;;;;;;53.08;20.63;;;;;;;;;;5010634;28;20054;-58
2021/12/22 13:09:58;;;;;;;50.78;20.05;;;;;;;;;;5009833;28;20046;-60
2021/12/22 13:17:59;;;;;;;51.13;18.80;;;;;;;;;;5010255;28;20439;-60
2021/12/22 13:20:29;;;;;;;54.33;20.77;;;;;;;;;;5009940;28;20050;-61
2021/12/22 13:22:59;;;;;;;49.97;20.17;;;;;;;;;;5010547;28;20054;-59
2021/12/22 13:25:28;;;;;;;51.50;19.25;;;;;;;;;;5010320;28;20504;-60
2021/12/22 13:27:56;;;;;;;54.45;20.45;;;;;;;;;;5010172;28;20050;-59
2021/12/22 13:30:26;;;;;;;47.35;18.80;;;;;;;;;;5010497;28;20045;-60
2021/12/22 13:32:59;;;;;;;46.17;18.55;;;;;;;;;;5010081;28;20050;-60
2021/12/22 13:35:39;;;;;;;52.35;19.95;;;;;;;;;;5010380;28;20056;-60
2021/12/22 13:38:09;;;;;;;51.90;21.53;;;;;;;;;;5010460;28;20050;-60
2021/12/22 13:40:39;;;;;;;49.20;20.95;;;;;;;;;;5013176;28;20054;-60
2021/12/22 13:43:07;;;;;;;52.40;20.00;;;;;;;;;;5013886;28;20054;-60
2021/12/22 13:45:35;;;;;;;44.65;18.50;;;;;;;;;;5013471;28;20049;-58
2021/12/22 13:48:04;;;;;;;48.00;20.40;;;;;;;;;;5013531;28;20057;-57
2021/12/22 13:50:31;;;;;;;45.60;19.25;;;;;;;;;;5013833;28;20096;-60
2021/12/22 13:52:58;;;;;;;50.97;19.70;;;;;;;;;;5013546;28;20076;-58
2021/12/22 13:55:27;;;;;;;49.70;19.83;;;;;;;;;;5013516;28;20462;-57
2021/12/22 14:00:21;;;;;;;47.70;20.10;;;;;;;;;;5031950;28;20048;-68
2021/12/22 14:02:49;;;;;;;45.00;18.85;;;;;;;;;;5032495;28;20051;-66
2021/12/22 14:05:18;;;;;;;52.25;20.85;;;;;;;;;;5032849;28;20056;-66
2021/12/22 14:07:46;;;;;;;45.22;18.98;;;;;;;;;;5032906;28;20569;-67
2021/12/22 14:10:15;;;;;;;49.28;20.90;;;;;;;;;;5032735;28;20049;-67
2021/12/22 14:12:45;;;;;;;47.00;19.60;;;;;;;;;;5032480;28;20049;-67
2021/12/22 14:15:13;;;;;;;51.33;20.02;;;;;;;;;;5032531;28;20049;-67
2021/12/22 14:17:44;;;;;;;50.85;20.33;;;;;;;;;;5032343;28;20049;-68
2021/12/22 14:20:15;;;;;;;;;;;;;;;;;;5033253;28;20068;-67
2021/12/22 14:22:45;;;;;;;47.80;18.70;;;;;;;;;;5033015;28;19975;-67
2021/12/22 14:25:15;;;;;;;50.35;19.20;;;;;;;;;;5033073;28;20271;-67
2021/12/22 14:27:46;;;;;;;50.35;18.35;;;;;;;;;;5032378;28;20049;-67
2021/12/22 14:30:23;;;;;;;46.87;19.03;;;;;;;;;;5032785;28;20089;-66
2021/12/22 14:32:55;;;;;;;47.28;19.48;;;;;;;;;;5032408;28;20381;-67
2021/12/22 14:35:23;;;;;;;50.03;19.80;;;;;;;;;;5032293;28;20049;-68
2021/12/22 14:37:57;;;;;;;43.90;19.33;;;;;;;;;;5031907;28;20392;-67
2021/12/22 14:40:26;;;;;;;50.60;20.75;;;;;;;;;;5032251;28;20045;-66
2021/12/22 14:43:04;;;;;;;46.58;19.08;;;;;;;;;;5031923;28;20056;-67
2021/12/22 14:45:33;;;;;;;48.30;20.77;;;;;;;;;;5031808;28;20053;-67
2021/12/22 14:48:12;;;;;;;44.00;20.15;;;;;;;;;;5031524;28;20057;-67
2021/12/22 14:50:42;;;;;;;51.25;20.38;;;;;;;;;;5031892;28;20053;-67
2021/12/22 14:53:10;;;;;;;49.13;19.08;;;;;;;;;;5031536;28;20513;-67
2021/12/22 14:55:47;;;;;;;48.30;19.30;;;;;;;;;;5031625;28;20082;-68
2021/12/22 14:58:17;;;;;;;51.13;19.55;;;;;;;;;;5031212;28;20490;-68